sensor_id;sensor_type;location;lat;lon;timestamp;temperature;humidity
17887;DHT22;9069;52.044;7.472;2024-02-26T00:02:17;7.80;95.80
17887;DHT22;9069;52.044;7.472;2024-02-26T00:04:43;7.80;95.90
17887;DHT22;9069;52.044;7.472;2024-02-26T00:07:10;7.80;95.90
17887;DHT22;9069;52.044;7.472;2024-02-26T00:09:40;7.80;96.00
17887;DHT22;9069;52.044;7.472;2024-02-26T00:12:13;7.70;96.10
17887;DHT22;9069;52.044;7.472;2024-02-26T00:14:39;7.70;96.10
17887;DHT22;9069;52.044;7.472;2024-02-26T00:17:07;7.70;96.10
17887;DHT22;9069;52.044;7.472;2024-02-26T00:19:35;7.80;96.20
17887;DHT22;9069;52.044;7.472;2024-02-26T00:22:05;7.70;96.20
17887;DHT22;9069;52.044;7.472;2024-02-26T00:24:33;7.80;96.30
17887;DHT22;9069;52.044;7.472;2024-02-26T00:26:59;7.80;96.20
17887;DHT22;9069;52.044;7.472;2024-02-26T00:29:26;7.80;96.20
17887;DHT22;9069;52.044;7.472;2024-02-26T00:31:53;7.60;96.20
17887;DHT22;9069;52.044;7.472;2024-02-26T00:34:20;7.80;96.30
17887;DHT22;9069;52.044;7.472;2024-02-26T00:36:47;7.80;96.30
17887;DHT22;9069;52.044;7.472;2024-02-26T00:39:14;7.80;96.30
17887;DHT22;9069;52.044;7.472;2024-02-26T00:41:41;7.80;96.30
17887;DHT22;9069;52.044;7.472;2024-02-26T00:44:08;7.80;96.30
17887;DHT22;9069;52.044;7.472;2024-02-26T00:46:35;7.80;96.30
17887;DHT22;9069;52.044;7.472;2024-02-26T00:49:01;7.80;96.30
17887;DHT22;9069;52.044;7.472;2024-02-26T00:51:30;7.80;96.70
17887;DHT22;9069;52.044;7.472;2024-02-26T00:53:57;7.80;96.40
17887;DHT22;9069;52.044;7.472;2024-02-26T00:56:24;7.80;96.30
17887;DHT22;9069;52.044;7.472;2024-02-26T00:58:51;7.80;96.30
17887;DHT22;9069;52.044;7.472;2024-02-26T01:01:18;7.80;96.40
17887;DHT22;9069;52.044;7.472;2024-02-26T01:03:45;7.80;96.40
17887;DHT22;9069;52.044;7.472;2024-02-26T01:06:12;7.80;96.40
17887;DHT22;9069;52.044;7.472;2024-02-26T01:08:39;7.80;96.40
17887;DHT22;9069;52.044;7.472;2024-02-26T01:11:06;7.80;96.40
17887;DHT22;9069;52.044;7.472;2024-02-26T01:13:37;7.80;96.40
17887;DHT22;9069;52.044;7.472;2024-02-26T01:16:04;7.80;96.40
17887;DHT22;9069;52.044;7.472;2024-02-26T01:18:31;7.80;96.40
17887;DHT22;9069;52.044;7.472;2024-02-26T01:20:58;7.80;96.40
17887;DHT22;9069;52.044;7.472;2024-02-26T01:23:25;7.90;96.40
17887;DHT22;9069;52.044;7.472;2024-02-26T01:25:52;7.90;96.40
17887;DHT22;9069;52.044;7.472;2024-02-26T01:28:18;7.90;96.30
17887;DHT22;9069;52.044;7.472;2024-02-26T01:30:45;7.90;96.40
17887;DHT22;9069;52.044;7.472;2024-02-26T01:33:12;7.90;96.40
17887;DHT22;9069;52.044;7.472;2024-02-26T01:35:39;8.10;96.40
17887;DHT22;9069;52.044;7.472;2024-02-26T01:38:06;7.90;96.30
17887;DHT22;9069;52.044;7.472;2024-02-26T01:40:33;7.90;96.60
17887;DHT22;9069;52.044;7.472;2024-02-26T01:43:00;7.90;96.30
17887;DHT22;9069;52.044;7.472;2024-02-26T01:45:28;7.90;96.30
17887;DHT22;9069;52.044;7.472;2024-02-26T01:47:55;8.00;96.30
17887;DHT22;9069;52.044;7.472;2024-02-26T01:50:24;7.90;96.30
17887;DHT22;9069;52.044;7.472;2024-02-26T01:52:51;7.90;96.20
17887;DHT22;9069;52.044;7.472;2024-02-26T01:55:20;7.90;96.20
17887;DHT22;9069;52.044;7.472;2024-02-26T01:57:48;8.00;96.20
17887;DHT22;9069;52.044;7.472;2024-02-26T02:00:16;7.90;96.20
17887;DHT22;9069;52.044;7.472;2024-02-26T02:02:44;7.90;96.20
17887;DHT22;9069;52.044;7.472;2024-02-26T02:05:15;8.00;96.20
17887;DHT22;9069;52.044;7.472;2024-02-26T02:07:44;7.90;96.20
17887;DHT22;9069;52.044;7.472;2024-02-26T02:10:11;7.90;96.20
17887;DHT22;9069;52.044;7.472;2024-02-26T02:12:37;7.90;96.20
17887;DHT22;9069;52.044;7.472;2024-02-26T02:15:07;7.90;96.30
17887;DHT22;9069;52.044;7.472;2024-02-26T02:17:34;7.90;96.30
17887;DHT22;9069;52.044;7.472;2024-02-26T02:20:01;8.00;96.40
17887;DHT22;9069;52.044;7.472;2024-02-26T02:22:30;7.90;96.30
17887;DHT22;9069;52.044;7.472;2024-02-26T02:24:59;8.00;96.40
17887;DHT22;9069;52.044;7.472;2024-02-26T02:27:27;8.00;96.40
17887;DHT22;9069;52.044;7.472;2024-02-26T02:29:55;8.00;96.40
17887;DHT22;9069;52.044;7.472;2024-02-26T02:32:22;8.00;96.40
17887;DHT22;9069;52.044;7.472;2024-02-26T02:34:50;8.00;96.40
17887;DHT22;9069;52.044;7.472;2024-02-26T02:37:17;8.00;96.40
17887;DHT22;9069;52.044;7.472;2024-02-26T02:39:44;8.00;96.40
17887;DHT22;9069;52.044;7.472;2024-02-26T02:42:11;7.50;96.20
17887;DHT22;9069;52.044;7.472;2024-02-26T02:44:38;8.00;96.30
17887;DHT22;9069;52.044;7.472;2024-02-26T02:47:05;8.00;96.30
17887;DHT22;9069;52.044;7.472;2024-02-26T02:49:32;8.00;96.30
17887;DHT22;9069;52.044;7.472;2024-02-26T02:51:59;7.90;96.30
17887;DHT22;9069;52.044;7.472;2024-02-26T02:54:27;8.00;96.30
17887;DHT22;9069;52.044;7.472;2024-02-26T02:56:54;8.00;96.30
17887;DHT22;9069;52.044;7.472;2024-02-26T02:59:21;8.00;96.30
17887;DHT22;9069;52.044;7.472;2024-02-26T03:01:47;8.00;96.30
17887;DHT22;9069;52.044;7.472;2024-02-26T03:04:14;8.00;96.30
17887;DHT22;9069;52.044;7.472;2024-02-26T03:06:41;8.00;96.30
17887;DHT22;9069;52.044;7.472;2024-02-26T03:09:08;8.00;96.40
17887;DHT22;9069;52.044;7.472;2024-02-26T03:11:35;8.00;96.40
17887;DHT22;9069;52.044;7.472;2024-02-26T03:14:02;8.00;96.40
17887;DHT22;9069;52.044;7.472;2024-02-26T03:16:33;8.00;96.40
17887;DHT22;9069;52.044;7.472;2024-02-26T03:19:00;8.00;96.40
17887;DHT22;9069;52.044;7.472;2024-02-26T03:21:30;8.00;96.40
17887;DHT22;9069;52.044;7.472;2024-02-26T03:23:56;8.00;96.40
17887;DHT22;9069;52.044;7.472;2024-02-26T03:26:24;8.00;96.40
17887;DHT22;9069;52.044;7.472;2024-02-26T03:28:50;8.00;96.40
17887;DHT22;9069;52.044;7.472;2024-02-26T03:31:17;8.00;96.50
17887;DHT22;9069;52.044;7.472;2024-02-26T03:33:44;8.00;96.50
17887;DHT22;9069;52.044;7.472;2024-02-26T03:36:11;8.00;96.50
17887;DHT22;9069;52.044;7.472;2024-02-26T03:38:38;8.00;96.50
17887;DHT22;9069;52.044;7.472;2024-02-26T03:41:05;8.00;96.50
17887;DHT22;9069;52.044;7.472;2024-02-26T03:43:32;8.00;96.50
17887;DHT22;9069;52.044;7.472;2024-02-26T03:45:59;8.00;96.50
17887;DHT22;9069;52.044;7.472;2024-02-26T03:48:29;8.00;96.50
17887;DHT22;9069;52.044;7.472;2024-02-26T03:50:56;8.00;96.50
17887;DHT22;9069;52.044;7.472;2024-02-26T03:53:23;8.00;96.50
17887;DHT22;9069;52.044;7.472;2024-02-26T03:55:49;8.00;96.50
17887;DHT22;9069;52.044;7.472;2024-02-26T03:58:18;8.10;96.60
17887;DHT22;9069;52.044;7.472;2024-02-26T04:00:45;8.00;96.60
17887;DHT22;9069;52.044;7.472;2024-02-26T04:03:14;8.00;96.60
17887;DHT22;9069;52.044;7.472;2024-02-26T04:05:41;8.00;96.60
17887;DHT22;9069;52.044;7.472;2024-02-26T04:08:08;8.00;96.60
17887;DHT22;9069;52.044;7.472;2024-02-26T04:10:35;8.00;96.60
17887;DHT22;9069;52.044;7.472;2024-02-26T04:13:02;8.00;96.70
17887;DHT22;9069;52.044;7.472;2024-02-26T04:15:30;8.00;96.70
17887;DHT22;9069;52.044;7.472;2024-02-26T04:17:57;8.00;96.70
17887;DHT22;9069;52.044;7.472;2024-02-26T04:20:24;8.00;96.70
17887;DHT22;9069;52.044;7.472;2024-02-26T04:22:57;8.00;96.80
17887;DHT22;9069;52.044;7.472;2024-02-26T04:25:24;8.00;96.80
17887;DHT22;9069;52.044;7.472;2024-02-26T04:27:51;8.00;96.80
17887;DHT22;9069;52.044;7.472;2024-02-26T04:30:23;8.00;96.80
17887;DHT22;9069;52.044;7.472;2024-02-26T04:32:50;8.00;96.90
17887;DHT22;9069;52.044;7.472;2024-02-26T04:35:17;8.00;96.80
17887;DHT22;9069;52.044;7.472;2024-02-26T04:37:44;8.00;96.90
17887;DHT22;9069;52.044;7.472;2024-02-26T04:40:11;8.00;96.80
17887;DHT22;9069;52.044;7.472;2024-02-26T04:42:38;8.00;96.90
17887;DHT22;9069;52.044;7.472;2024-02-26T04:45:05;8.00;96.90
17887;DHT22;9069;52.044;7.472;2024-02-26T04:47:33;8.00;96.90
17887;DHT22;9069;52.044;7.472;2024-02-26T04:50:00;8.00;96.90
17887;DHT22;9069;52.044;7.472;2024-02-26T04:52:29;8.00;96.90
17887;DHT22;9069;52.044;7.472;2024-02-26T04:54:56;8.00;96.90
17887;DHT22;9069;52.044;7.472;2024-02-26T04:57:22;8.00;96.90
17887;DHT22;9069;52.044;7.472;2024-02-26T04:59:49;8.00;96.90
17887;DHT22;9069;52.044;7.472;2024-02-26T05:02:16;8.00;96.90
17887;DHT22;9069;52.044;7.472;2024-02-26T05:04:43;8.00;96.90
17887;DHT22;9069;52.044;7.472;2024-02-26T05:07:10;8.00;96.90
17887;DHT22;9069;52.044;7.472;2024-02-26T05:09:37;8.00;96.70
17887;DHT22;9069;52.044;7.472;2024-02-26T05:12:04;8.00;97.00
17887;DHT22;9069;52.044;7.472;2024-02-26T05:14:32;8.00;97.00
17887;DHT22;9069;52.044;7.472;2024-02-26T05:16:58;8.00;97.00
17887;DHT22;9069;52.044;7.472;2024-02-26T05:19:25;8.00;97.10
17887;DHT22;9069;52.044;7.472;2024-02-26T05:21:52;8.00;97.10
17887;DHT22;9069;52.044;7.472;2024-02-26T05:24:19;8.00;97.10
17887;DHT22;9069;52.044;7.472;2024-02-26T05:26:49;8.00;97.20
17887;DHT22;9069;52.044;7.472;2024-02-26T05:29:16;8.00;97.20
17887;DHT22;9069;52.044;7.472;2024-02-26T05:31:43;8.00;97.20
17887;DHT22;9069;52.044;7.472;2024-02-26T05:34:10;7.90;97.20
17887;DHT22;9069;52.044;7.472;2024-02-26T05:36:37;7.90;97.30
17887;DHT22;9069;52.044;7.472;2024-02-26T05:39:08;7.90;97.30
17887;DHT22;9069;52.044;7.472;2024-02-26T05:41:43;7.90;97.40
17887;DHT22;9069;52.044;7.472;2024-02-26T05:44:11;7.90;97.40
17887;DHT22;9069;52.044;7.472;2024-02-26T05:46:38;7.90;97.40
17887;DHT22;9069;52.044;7.472;2024-02-26T05:49:04;7.90;97.40
17887;DHT22;9069;52.044;7.472;2024-02-26T05:51:31;7.90;97.40
17887;DHT22;9069;52.044;7.472;2024-02-26T05:53:58;7.90;97.40
17887;DHT22;9069;52.044;7.472;2024-02-26T05:56:25;7.90;97.30
17887;DHT22;9069;52.044;7.472;2024-02-26T05:58:52;7.90;97.40
17887;DHT22;9069;52.044;7.472;2024-02-26T06:01:19;7.90;97.40
17887;DHT22;9069;52.044;7.472;2024-02-26T06:03:46;7.90;97.40
17887;DHT22;9069;52.044;7.472;2024-02-26T06:06:13;7.90;97.40
17887;DHT22;9069;52.044;7.472;2024-02-26T06:08:42;7.90;97.40
17887;DHT22;9069;52.044;7.472;2024-02-26T06:11:09;8.00;97.40
17887;DHT22;9069;52.044;7.472;2024-02-26T06:13:36;8.00;97.40
17887;DHT22;9069;52.044;7.472;2024-02-26T06:16:04;8.00;97.40
17887;DHT22;9069;52.044;7.472;2024-02-26T06:18:31;8.00;97.40
17887;DHT22;9069;52.044;7.472;2024-02-26T06:20:58;8.00;97.40
17887;DHT22;9069;52.044;7.472;2024-02-26T06:23:51;8.00;97.40
17887;DHT22;9069;52.044;7.472;2024-02-26T06:26:18;8.00;97.40
17887;DHT22;9069;52.044;7.472;2024-02-26T06:28:44;8.00;97.50
17887;DHT22;9069;52.044;7.472;2024-02-26T06:31:11;8.00;97.50
17887;DHT22;9069;52.044;7.472;2024-02-26T06:33:38;8.00;97.50
17887;DHT22;9069;52.044;7.472;2024-02-26T06:36:05;8.00;97.50
17887;DHT22;9069;52.044;7.472;2024-02-26T06:38:33;8.00;97.60
17887;DHT22;9069;52.044;7.472;2024-02-26T06:41:00;8.00;97.60
17887;DHT22;9069;52.044;7.472;2024-02-26T06:43:30;8.00;97.60
17887;DHT22;9069;52.044;7.472;2024-02-26T06:45:56;8.00;97.60
17887;DHT22;9069;52.044;7.472;2024-02-26T06:48:24;8.00;97.60
17887;DHT22;9069;52.044;7.472;2024-02-26T06:50:51;8.00;97.60
17887;DHT22;9069;52.044;7.472;2024-02-26T06:53:18;8.00;98.00
17887;DHT22;9069;52.044;7.472;2024-02-26T06:55:45;8.00;97.60
17887;DHT22;9069;52.044;7.472;2024-02-26T06:58:12;8.00;97.60
17887;DHT22;9069;52.044;7.472;2024-02-26T07:00:39;8.00;97.70
17887;DHT22;9069;52.044;7.472;2024-02-26T07:03:05;8.00;97.70
17887;DHT22;9069;52.044;7.472;2024-02-26T07:05:32;8.00;97.70
17887;DHT22;9069;52.044;7.472;2024-02-26T07:07:59;8.00;97.80
17887;DHT22;9069;52.044;7.472;2024-02-26T07:10:26;8.00;97.80
17887;DHT22;9069;52.044;7.472;2024-02-26T07:12:53;8.00;97.80
17887;DHT22;9069;52.044;7.472;2024-02-26T07:15:20;8.00;97.80
17887;DHT22;9069;52.044;7.472;2024-02-26T07:17:47;8.00;97.80
17887;DHT22;9069;52.044;7.472;2024-02-26T07:20:16;8.00;97.80
17887;DHT22;9069;52.044;7.472;2024-02-26T07:22:44;8.00;97.80
17887;DHT22;9069;52.044;7.472;2024-02-26T07:25:11;8.00;97.80
17887;DHT22;9069;52.044;7.472;2024-02-26T07:27:40;8.00;97.80
17887;DHT22;9069;52.044;7.472;2024-02-26T07:30:07;8.00;97.80
17887;DHT22;9069;52.044;7.472;2024-02-26T07:32:37;8.00;97.80
17887;DHT22;9069;52.044;7.472;2024-02-26T07:35:04;8.00;97.80
17887;DHT22;9069;52.044;7.472;2024-02-26T07:37:32;8.00;97.70
17887;DHT22;9069;52.044;7.472;2024-02-26T07:39:59;8.00;97.70
17887;DHT22;9069;52.044;7.472;2024-02-26T07:42:27;8.00;97.70
17887;DHT22;9069;52.044;7.472;2024-02-26T07:44:54;8.00;98.10
17887;DHT22;9069;52.044;7.472;2024-02-26T07:47:21;7.60;97.60
17887;DHT22;9069;52.044;7.472;2024-02-26T07:49:48;8.10;97.80
17887;DHT22;9069;52.044;7.472;2024-02-26T07:52:15;8.10;97.80
17887;DHT22;9069;52.044;7.472;2024-02-26T07:54:42;8.10;97.80
17887;DHT22;9069;52.044;7.472;2024-02-26T07:57:08;8.10;97.70
17887;DHT22;9069;52.044;7.472;2024-02-26T07:59:35;8.10;97.70
17887;DHT22;9069;52.044;7.472;2024-02-26T08:02:02;8.20;97.70
17887;DHT22;9069;52.044;7.472;2024-02-26T08:04:30;8.20;97.60
17887;DHT22;9069;52.044;7.472;2024-02-26T08:06:57;8.20;97.50
17887;DHT22;9069;52.044;7.472;2024-02-26T08:09:24;8.20;97.50
17887;DHT22;9069;52.044;7.472;2024-02-26T08:11:51;8.20;97.70
17887;DHT22;9069;52.044;7.472;2024-02-26T08:14:18;8.20;97.40
17887;DHT22;9069;52.044;7.472;2024-02-26T08:16:44;8.20;97.30
17887;DHT22;9069;52.044;7.472;2024-02-26T08:19:11;8.20;97.30
17887;DHT22;9069;52.044;7.472;2024-02-26T08:21:41;8.20;97.30
17887;DHT22;9069;52.044;7.472;2024-02-26T08:24:08;8.30;97.30
17887;DHT22;9069;52.044;7.472;2024-02-26T08:26:35;8.30;97.30
17887;DHT22;9069;52.044;7.472;2024-02-26T08:29:01;8.30;97.30
17887;DHT22;9069;52.044;7.472;2024-02-26T08:31:28;8.30;97.30
17887;DHT22;9069;52.044;7.472;2024-02-26T08:33:56;8.30;97.20
17887;DHT22;9069;52.044;7.472;2024-02-26T08:36:25;8.40;97.30
17887;DHT22;9069;52.044;7.472;2024-02-26T08:38:52;8.30;97.20
17887;DHT22;9069;52.044;7.472;2024-02-26T08:41:18;8.40;97.20
17887;DHT22;9069;52.044;7.472;2024-02-26T08:43:45;8.40;97.20
17887;DHT22;9069;52.044;7.472;2024-02-26T08:46:12;8.40;97.20
17887;DHT22;9069;52.044;7.472;2024-02-26T08:48:40;8.60;97.30
17887;DHT22;9069;52.044;7.472;2024-02-26T08:51:08;8.40;97.10
17887;DHT22;9069;52.044;7.472;2024-02-26T08:53:37;8.50;97.10
17887;DHT22;9069;52.044;7.472;2024-02-26T08:56:10;8.50;97.10
17887;DHT22;9069;52.044;7.472;2024-02-26T08:58:43;8.50;97.10
17887;DHT22;9069;52.044;7.472;2024-02-26T09:01:10;8.50;97.00
17887;DHT22;9069;52.044;7.472;2024-02-26T09:03:37;8.50;97.00
17887;DHT22;9069;52.044;7.472;2024-02-26T09:06:04;8.60;97.10
17887;DHT22;9069;52.044;7.472;2024-02-26T09:08:35;8.60;97.00
17887;DHT22;9069;52.044;7.472;2024-02-26T09:11:03;8.60;97.00
17887;DHT22;9069;52.044;7.472;2024-02-26T09:13:30;8.60;97.00
17887;DHT22;9069;52.044;7.472;2024-02-26T09:15:57;8.70;97.10
17887;DHT22;9069;52.044;7.472;2024-02-26T09:18:25;8.70;97.10
17887;DHT22;9069;52.044;7.472;2024-02-26T09:20:52;8.70;97.10
17887;DHT22;9069;52.044;7.472;2024-02-26T09:23:19;8.70;97.10
17887;DHT22;9069;52.044;7.472;2024-02-26T09:25:45;8.70;97.20
17887;DHT22;9069;52.044;7.472;2024-02-26T09:28:12;8.70;97.20
17887;DHT22;9069;52.044;7.472;2024-02-26T09:30:39;8.70;97.20
17887;DHT22;9069;52.044;7.472;2024-02-26T09:33:06;8.80;97.30
17887;DHT22;9069;52.044;7.472;2024-02-26T09:35:33;8.80;97.30
17887;DHT22;9069;52.044;7.472;2024-02-26T09:38:00;8.80;97.30
17887;DHT22;9069;52.044;7.472;2024-02-26T09:40:28;8.80;97.30
17887;DHT22;9069;52.044;7.472;2024-02-26T09:42:59;8.80;97.30
17887;DHT22;9069;52.044;7.472;2024-02-26T09:45:28;8.80;97.30
17887;DHT22;9069;52.044;7.472;2024-02-26T09:47:56;8.80;97.40
17887;DHT22;9069;52.044;7.472;2024-02-26T09:50:24;8.80;97.40
17887;DHT22;9069;52.044;7.472;2024-02-26T09:52:51;8.90;97.50
17887;DHT22;9069;52.044;7.472;2024-02-26T09:55:19;8.90;97.50
17887;DHT22;9069;52.044;7.472;2024-02-26T09:57:46;8.90;97.60
17887;DHT22;9069;52.044;7.472;2024-02-26T10:00:19;8.90;97.60
17887;DHT22;9069;52.044;7.472;2024-02-26T10:02:47;9.00;97.50
17887;DHT22;9069;52.044;7.472;2024-02-26T10:05:17;9.00;97.50
17887;DHT22;9069;52.044;7.472;2024-02-26T10:07:47;9.00;97.50
17887;DHT22;9069;52.044;7.472;2024-02-26T10:10:15;9.10;97.60
17887;DHT22;9069;52.044;7.472;2024-02-26T10:12:42;9.10;97.60
17887;DHT22;9069;52.044;7.472;2024-02-26T10:15:09;9.10;97.70
17887;DHT22;9069;52.044;7.472;2024-02-26T10:17:36;9.20;97.60
17887;DHT22;9069;52.044;7.472;2024-02-26T10:20:15;9.20;97.60
17887;DHT22;9069;52.044;7.472;2024-02-26T10:22:44;9.20;97.50
17887;DHT22;9069;52.044;7.472;2024-02-26T10:25:11;9.30;97.40
17887;DHT22;9069;52.044;7.472;2024-02-26T10:27:39;9.30;97.40
17887;DHT22;9069;52.044;7.472;2024-02-26T10:30:22;9.30;97.30
17887;DHT22;9069;52.044;7.472;2024-02-26T10:32:50;9.30;97.30
17887;DHT22;9069;52.044;7.472;2024-02-26T10:35:18;9.40;97.40
17887;DHT22;9069;52.044;7.472;2024-02-26T10:37:47;9.30;97.30
17887;DHT22;9069;52.044;7.472;2024-02-26T10:40:14;9.40;97.40
17887;DHT22;9069;52.044;7.472;2024-02-26T10:42:43;9.40;97.40
17887;DHT22;9069;52.044;7.472;2024-02-26T10:45:10;9.40;97.50
17887;DHT22;9069;52.044;7.472;2024-02-26T10:47:39;9.40;97.50
17887;DHT22;9069;52.044;7.472;2024-02-26T10:50:07;9.40;97.40
17887;DHT22;9069;52.044;7.472;2024-02-26T10:52:36;9.30;97.30
17887;DHT22;9069;52.044;7.472;2024-02-26T10:55:05;9.40;97.20
17887;DHT22;9069;52.044;7.472;2024-02-26T10:57:36;9.40;97.20
17887;DHT22;9069;52.044;7.472;2024-02-26T11:00:10;9.40;97.10
17887;DHT22;9069;52.044;7.472;2024-02-26T11:02:41;9.30;97.10
17887;DHT22;9069;52.044;7.472;2024-02-26T11:05:08;9.30;97.20
17887;DHT22;9069;52.044;7.472;2024-02-26T11:07:35;9.30;97.20
17887;DHT22;9069;52.044;7.472;2024-02-26T11:10:04;9.30;97.10
17887;DHT22;9069;52.044;7.472;2024-02-26T11:12:33;9.30;97.20
17887;DHT22;9069;52.044;7.472;2024-02-26T11:15:04;9.30;97.30
17887;DHT22;9069;52.044;7.472;2024-02-26T11:17:31;9.30;97.20
17887;DHT22;9069;52.044;7.472;2024-02-26T11:19:59;9.30;97.20
17887;DHT22;9069;52.044;7.472;2024-02-26T11:22:28;9.30;97.10
17887;DHT22;9069;52.044;7.472;2024-02-26T11:24:56;9.30;96.90
17887;DHT22;9069;52.044;7.472;2024-02-26T11:27:27;9.30;96.90
17887;DHT22;9069;52.044;7.472;2024-02-26T11:29:58;9.30;96.90
17887;DHT22;9069;52.044;7.472;2024-02-26T11:32:27;9.30;96.90
17887;DHT22;9069;52.044;7.472;2024-02-26T11:34:58;9.70;97.00
17887;DHT22;9069;52.044;7.472;2024-02-26T11:37:25;9.20;96.90
17887;DHT22;9069;52.044;7.472;2024-02-26T11:39:52;9.20;97.00
17887;DHT22;9069;52.044;7.472;2024-02-26T11:42:23;9.20;97.10
17887;DHT22;9069;52.044;7.472;2024-02-26T11:44:52;9.20;97.10
17887;DHT22;9069;52.044;7.472;2024-02-26T11:47:23;9.20;97.10
17887;DHT22;9069;52.044;7.472;2024-02-26T11:49:50;9.20;97.10
17887;DHT22;9069;52.044;7.472;2024-02-26T11:52:17;9.30;97.10
17887;DHT22;9069;52.044;7.472;2024-02-26T11:54:51;9.20;97.10
17887;DHT22;9069;52.044;7.472;2024-02-26T11:57:38;9.20;97.10
17887;DHT22;9069;52.044;7.472;2024-02-26T12:00:14;9.20;97.00
17887;DHT22;9069;52.044;7.472;2024-02-26T12:02:49;9.20;97.00
17887;DHT22;9069;52.044;7.472;2024-02-26T12:05:20;9.10;97.00
17887;DHT22;9069;52.044;7.472;2024-02-26T12:08:14;9.10;97.10
17887;DHT22;9069;52.044;7.472;2024-02-26T12:10:43;9.10;97.20
17887;DHT22;9069;52.044;7.472;2024-02-26T12:13:13;9.10;97.30
17887;DHT22;9069;52.044;7.472;2024-02-26T12:15:56;9.10;97.30
17887;DHT22;9069;52.044;7.472;2024-02-26T12:18:24;9.10;97.40
17887;DHT22;9069;52.044;7.472;2024-02-26T12:21:01;9.10;97.40
17887;DHT22;9069;52.044;7.472;2024-02-26T12:23:54;9.10;97.60
17887;DHT22;9069;52.044;7.472;2024-02-26T12:26:22;9.20;97.60
17887;DHT22;9069;52.044;7.472;2024-02-26T12:28:48;9.00;97.60
17887;DHT22;9069;52.044;7.472;2024-02-26T12:31:15;9.00;97.60
17887;DHT22;9069;52.044;7.472;2024-02-26T12:33:42;9.00;97.70
17887;DHT22;9069;52.044;7.472;2024-02-26T12:36:09;9.00;97.70
17887;DHT22;9069;52.044;7.472;2024-02-26T12:38:36;9.00;97.70
17887;DHT22;9069;52.044;7.472;2024-02-26T12:41:04;9.00;97.80
17887;DHT22;9069;52.044;7.472;2024-02-26T12:43:32;9.00;97.80
17887;DHT22;9069;52.044;7.472;2024-02-26T12:46:03;9.00;97.90
17887;DHT22;9069;52.044;7.472;2024-02-26T12:48:30;9.00;98.00
17887;DHT22;9069;52.044;7.472;2024-02-26T12:50:57;9.00;97.90
17887;DHT22;9069;52.044;7.472;2024-02-26T12:53:25;9.00;98.00
17887;DHT22;9069;52.044;7.472;2024-02-26T12:55:52;9.00;98.10
17887;DHT22;9069;52.044;7.472;2024-02-26T12:58:19;9.00;98.10
17887;DHT22;9069;52.044;7.472;2024-02-26T13:00:47;9.00;98.10
17887;DHT22;9069;52.044;7.472;2024-02-26T13:03:15;9.00;98.20
17887;DHT22;9069;52.044;7.472;2024-02-26T13:05:42;9.00;98.30
17887;DHT22;9069;52.044;7.472;2024-02-26T13:08:09;8.90;98.30
17887;DHT22;9069;52.044;7.472;2024-02-26T13:10:36;8.90;98.50
17887;DHT22;9069;52.044;7.472;2024-02-26T13:13:04;8.90;98.40
17887;DHT22;9069;52.044;7.472;2024-02-26T13:15:31;8.90;98.50
17887;DHT22;9069;52.044;7.472;2024-02-26T13:18:12;8.90;98.60
17887;DHT22;9069;52.044;7.472;2024-02-26T13:20:40;8.90;98.80
17887;DHT22;9069;52.044;7.472;2024-02-26T13:23:11;8.90;98.80
17887;DHT22;9069;52.044;7.472;2024-02-26T13:25:39;8.90;99.00
17887;DHT22;9069;52.044;7.472;2024-02-26T13:28:15;8.90;99.00
17887;DHT22;9069;52.044;7.472;2024-02-26T13:30:55;9.00;99.20
17887;DHT22;9069;52.044;7.472;2024-02-26T13:33:30;9.00;99.30
17887;DHT22;9069;52.044;7.472;2024-02-26T13:35:58;8.90;99.30
17887;DHT22;9069;52.044;7.472;2024-02-26T13:38:31;9.00;99.40
17887;DHT22;9069;52.044;7.472;2024-02-26T13:40:58;9.00;99.60
17887;DHT22;9069;52.044;7.472;2024-02-26T13:43:24;9.00;99.60
17887;DHT22;9069;52.044;7.472;2024-02-26T13:45:51;9.00;99.70
17887;DHT22;9069;52.044;7.472;2024-02-26T13:48:18;9.00;99.90
17887;DHT22;9069;52.044;7.472;2024-02-26T13:50:45;9.00;99.90
17887;DHT22;9069;52.044;7.472;2024-02-26T13:53:13;9.00;99.90
17887;DHT22;9069;52.044;7.472;2024-02-26T13:55:41;9.00;99.90
17887;DHT22;9069;52.044;7.472;2024-02-26T13:58:12;9.00;99.90
17887;DHT22;9069;52.044;7.472;2024-02-26T14:00:40;9.00;99.90
17887;DHT22;9069;52.044;7.472;2024-02-26T14:03:08;9.00;99.90
17887;DHT22;9069;52.044;7.472;2024-02-26T14:05:35;9.00;99.90
17887;DHT22;9069;52.044;7.472;2024-02-26T14:08:02;9.00;99.90
17887;DHT22;9069;52.044;7.472;2024-02-26T14:10:29;9.10;99.90
17887;DHT22;9069;52.044;7.472;2024-02-26T14:12:58;9.00;99.90
17887;DHT22;9069;52.044;7.472;2024-02-26T14:15:25;9.10;99.90
17887;DHT22;9069;52.044;7.472;2024-02-26T14:17:53;9.10;99.90
17887;DHT22;9069;52.044;7.472;2024-02-26T14:20:23;9.10;99.90
17887;DHT22;9069;52.044;7.472;2024-02-26T14:22:51;9.10;99.90
17887;DHT22;9069;52.044;7.472;2024-02-26T14:25:23;9.10;99.90
17887;DHT22;9069;52.044;7.472;2024-02-26T14:27:54;9.10;99.90
17887;DHT22;9069;52.044;7.472;2024-02-26T14:30:21;9.10;99.90
17887;DHT22;9069;52.044;7.472;2024-02-26T14:32:48;9.10;99.90
17887;DHT22;9069;52.044;7.472;2024-02-26T14:35:15;9.10;99.90
17887;DHT22;9069;52.044;7.472;2024-02-26T14:37:44;9.10;99.90
17887;DHT22;9069;52.044;7.472;2024-02-26T14:40:15;9.10;99.90
17887;DHT22;9069;52.044;7.472;2024-02-26T14:42:43;9.10;99.90
17887;DHT22;9069;52.044;7.472;2024-02-26T14:45:10;9.10;99.90
17887;DHT22;9069;52.044;7.472;2024-02-26T14:47:38;9.10;99.90
17887;DHT22;9069;52.044;7.472;2024-02-26T14:50:05;9.10;99.90
17887;DHT22;9069;52.044;7.472;2024-02-26T14:52:32;9.10;99.90
17887;DHT22;9069;52.044;7.472;2024-02-26T14:54:59;9.20;99.90
17887;DHT22;9069;52.044;7.472;2024-02-26T14:57:27;9.20;99.90
17887;DHT22;9069;52.044;7.472;2024-02-26T14:59:54;9.20;99.90
17887;DHT22;9069;52.044;7.472;2024-02-26T15:02:21;9.20;99.90
17887;DHT22;9069;52.044;7.472;2024-02-26T15:04:47;9.20;99.90
17887;DHT22;9069;52.044;7.472;2024-02-26T15:07:15;9.20;99.90
17887;DHT22;9069;52.044;7.472;2024-02-26T15:09:43;9.20;99.90
17887;DHT22;9069;52.044;7.472;2024-02-26T15:12:10;9.20;99.90
17887;DHT22;9069;52.044;7.472;2024-02-26T15:14:37;9.30;99.90
17887;DHT22;9069;52.044;7.472;2024-02-26T15:17:05;9.30;99.90
17887;DHT22;9069;52.044;7.472;2024-02-26T15:19:37;9.30;99.90
17887;DHT22;9069;52.044;7.472;2024-02-26T15:22:04;9.30;99.90
17887;DHT22;9069;52.044;7.472;2024-02-26T15:24:31;9.30;99.90
17887;DHT22;9069;52.044;7.472;2024-02-26T15:26:58;9.30;99.90
17887;DHT22;9069;52.044;7.472;2024-02-26T15:29:26;9.30;99.90
17887;DHT22;9069;52.044;7.472;2024-02-26T15:31:53;9.30;99.90
17887;DHT22;9069;52.044;7.472;2024-02-26T15:34:20;9.30;99.90
17887;DHT22;9069;52.044;7.472;2024-02-26T15:36:47;9.30;99.90
17887;DHT22;9069;52.044;7.472;2024-02-26T15:39:14;9.20;99.90
17887;DHT22;9069;52.044;7.472;2024-02-26T15:41:41;9.20;99.90
17887;DHT22;9069;52.044;7.472;2024-02-26T15:44:08;9.20;99.90
17887;DHT22;9069;52.044;7.472;2024-02-26T15:46:39;9.20;99.90
17887;DHT22;9069;52.044;7.472;2024-02-26T15:49:07;9.20;99.90
17887;DHT22;9069;52.044;7.472;2024-02-26T15:51:36;9.20;99.90
17887;DHT22;9069;52.044;7.472;2024-02-26T15:54:03;9.20;99.90
17887;DHT22;9069;52.044;7.472;2024-02-26T15:56:30;9.20;99.90
17887;DHT22;9069;52.044;7.472;2024-02-26T15:58:57;9.20;99.90
17887;DHT22;9069;52.044;7.472;2024-02-26T16:01:24;9.10;99.90
17887;DHT22;9069;52.044;7.472;2024-02-26T16:03:53;9.10;99.90
17887;DHT22;9069;52.044;7.472;2024-02-26T16:06:36;9.10;99.90
17887;DHT22;9069;52.044;7.472;2024-02-26T16:09:04;9.10;99.90